South Heights, Pennsylvania
Current Conditions -  °F | °C
As of 9:51 PM on Sunday 23 Nov 2014 (Local Time) from KPIT Reporting Station
Light Rain Light Rain  
Wind Chill: 53°   Ceiling: 8000
Heat Index: 53°   Visibility: 6mi
Dew Point: 47°   Wind: 12mph
Humidity: 80%   Direction: 120°ESE
Pressure: 29.62"   Gusts: NA
Location:  40.57°N, 80.24°W
Report Text: KPIT 240251Z 12010KT 6SM -RA OVC080 12/08 A2962 RMK AO2 PRESFR SLP037 P0001 60002 T01170083 58039
Loading
Personal Weather Stations






























Interactive Weather Map New forecast layout! Learn more

10-Day Weather Forecast

Advertisements
Track Severe Weather on mobile